sensor_id;sensor_type;location;lat;lon;timestamp;temperature;humidity
1956;DHT22;978;48.314;11.562;2024-02-26T00:00:43;20.60;72.20
1956;DHT22;978;48.314;11.562;2024-02-26T00:03:12;20.50;72.00
1956;DHT22;978;48.314;11.562;2024-02-26T00:05:40;20.60;71.90
1956;DHT22;978;48.314;11.562;2024-02-26T00:08:08;20.60;72.00
1956;DHT22;978;48.314;11.562;2024-02-26T00:10:35;20.60;72.00
1956;DHT22;978;48.314;11.562;2024-02-26T00:13:02;20.60;71.80
1956;DHT22;978;48.314;11.562;2024-02-26T00:15:30;20.50;71.90
1956;DHT22;978;48.314;11.562;2024-02-26T00:17:57;20.60;71.90
1956;DHT22;978;48.314;11.562;2024-02-26T00:20:23;20.50;71.90
1956;DHT22;978;48.314;11.562;2024-02-26T00:22:52;20.60;71.80
1956;DHT22;978;48.314;11.562;2024-02-26T00:25:19;20.50;71.70
1956;DHT22;978;48.314;11.562;2024-02-26T00:27:46;20.60;71.80
1956;DHT22;978;48.314;11.562;2024-02-26T00:30:13;20.60;71.80
1956;DHT22;978;48.314;11.562;2024-02-26T00:32:41;20.60;71.50
1956;DHT22;978;48.314;11.562;2024-02-26T00:35:08;20.60;71.50
1956;DHT22;978;48.314;11.562;2024-02-26T00:37:36;20.60;71.50
1956;DHT22;978;48.314;11.562;2024-02-26T00:40:03;20.60;71.50
1956;DHT22;978;48.314;11.562;2024-02-26T00:42:30;20.60;71.40
1956;DHT22;978;48.314;11.562;2024-02-26T00:44:57;20.60;71.40
1956;DHT22;978;48.314;11.562;2024-02-26T00:47:24;20.60;71.40
1956;DHT22;978;48.314;11.562;2024-02-26T00:49:52;20.60;71.30
1956;DHT22;978;48.314;11.562;2024-02-26T00:52:19;20.70;71.30
1956;DHT22;978;48.314;11.562;2024-02-26T00:54:47;20.60;71.30
1956;DHT22;978;48.314;11.562;2024-02-26T00:57:14;20.60;71.20
1956;DHT22;978;48.314;11.562;2024-02-26T00:59:41;20.60;71.30
1956;DHT22;978;48.314;11.562;2024-02-26T01:02:07;20.60;71.20
1956;DHT22;978;48.314;11.562;2024-02-26T01:04:34;20.50;71.20
1956;DHT22;978;48.314;11.562;2024-02-26T01:07:03;20.60;71.10
1956;DHT22;978;48.314;11.562;2024-02-26T01:09:29;20.50;71.00
1956;DHT22;978;48.314;11.562;2024-02-26T01:11:56;20.60;70.90
1956;DHT22;978;48.314;11.562;2024-02-26T01:14:23;20.60;70.90
1956;DHT22;978;48.314;11.562;2024-02-26T01:16:50;20.50;70.90
1956;DHT22;978;48.314;11.562;2024-02-26T01:19:17;20.50;70.90
1956;DHT22;978;48.314;11.562;2024-02-26T01:21:43;20.50;70.90
1956;DHT22;978;48.314;11.562;2024-02-26T01:24:12;20.50;70.80
1956;DHT22;978;48.314;11.562;2024-02-26T01:26:39;20.50;70.80
1956;DHT22;978;48.314;11.562;2024-02-26T01:29:06;20.60;70.80
1956;DHT22;978;48.314;11.562;2024-02-26T01:31:33;20.60;70.70
1956;DHT22;978;48.314;11.562;2024-02-26T01:34:00;20.50;70.50
1956;DHT22;978;48.314;11.562;2024-02-26T01:36:27;20.60;70.80
1956;DHT22;978;48.314;11.562;2024-02-26T01:38:54;20.50;70.60
1956;DHT22;978;48.314;11.562;2024-02-26T01:41:23;20.50;70.40
1956;DHT22;978;48.314;11.562;2024-02-26T01:43:50;20.50;70.50
1956;DHT22;978;48.314;11.562;2024-02-26T01:46:17;20.50;70.50
1956;DHT22;978;48.314;11.562;2024-02-26T01:48:45;20.60;70.60
1956;DHT22;978;48.314;11.562;2024-02-26T01:51:15;20.60;70.60
1956;DHT22;978;48.314;11.562;2024-02-26T01:53:45;20.50;70.40
1956;DHT22;978;48.314;11.562;2024-02-26T01:56:12;20.60;70.30
1956;DHT22;978;48.314;11.562;2024-02-26T01:58:41;20.50;70.30
1956;DHT22;978;48.314;11.562;2024-02-26T02:01:08;20.60;70.30
1956;DHT22;978;48.314;11.562;2024-02-26T02:03:36;20.60;70.20
1956;DHT22;978;48.314;11.562;2024-02-26T02:06:03;20.60;70.20
1956;DHT22;978;48.314;11.562;2024-02-26T02:08:31;20.60;70.20
1956;DHT22;978;48.314;11.562;2024-02-26T02:11:00;20.60;70.20
1956;DHT22;978;48.314;11.562;2024-02-26T02:13:27;20.60;70.10
1956;DHT22;978;48.314;11.562;2024-02-26T02:15:57;20.50;70.70
1956;DHT22;978;48.314;11.562;2024-02-26T02:18:24;20.60;70.10
1956;DHT22;978;48.314;11.562;2024-02-26T02:20:53;20.50;69.90
1956;DHT22;978;48.314;11.562;2024-02-26T02:23:22;20.50;69.90
1956;DHT22;978;48.314;11.562;2024-02-26T02:25:49;20.50;69.90
1956;DHT22;978;48.314;11.562;2024-02-26T02:28:15;20.50;70.00
1956;DHT22;978;48.314;11.562;2024-02-26T02:30:42;20.60;69.90
1956;DHT22;978;48.314;11.562;2024-02-26T02:33:09;20.50;69.70
1956;DHT22;978;48.314;11.562;2024-02-26T02:35:37;20.50;69.70
1956;DHT22;978;48.314;11.562;2024-02-26T02:38:05;22.10;70.70
1956;DHT22;978;48.314;11.562;2024-02-26T02:40:32;20.50;69.80
1956;DHT22;978;48.314;11.562;2024-02-26T02:42:59;20.50;69.70
1956;DHT22;978;48.314;11.562;2024-02-26T02:45:27;20.50;69.60
1956;DHT22;978;48.314;11.562;2024-02-26T02:47:54;20.50;69.60
1956;DHT22;978;48.314;11.562;2024-02-26T02:50:21;20.50;69.60
1956;DHT22;978;48.314;11.562;2024-02-26T02:52:47;20.50;69.50
1956;DHT22;978;48.314;11.562;2024-02-26T02:55:17;20.60;69.50
1956;DHT22;978;48.314;11.562;2024-02-26T02:57:44;20.50;69.40
1956;DHT22;978;48.314;11.562;2024-02-26T03:00:12;20.50;69.40
1956;DHT22;978;48.314;11.562;2024-02-26T03:02:39;20.50;69.40
1956;DHT22;978;48.314;11.562;2024-02-26T03:05:06;20.50;69.40
1956;DHT22;978;48.314;11.562;2024-02-26T03:07:33;20.60;69.50
1956;DHT22;978;48.314;11.562;2024-02-26T03:10:00;20.60;69.50
1956;DHT22;978;48.314;11.562;2024-02-26T03:12:29;20.50;69.30
1956;DHT22;978;48.314;11.562;2024-02-26T03:14:56;20.50;69.30
1956;DHT22;978;48.314;11.562;2024-02-26T03:17:24;20.50;69.20
1956;DHT22;978;48.314;11.562;2024-02-26T03:19:51;20.50;69.10
1956;DHT22;978;48.314;11.562;2024-02-26T03:22:19;20.50;69.20
1956;DHT22;978;48.314;11.562;2024-02-26T03:24:46;20.50;69.10
1956;DHT22;978;48.314;11.562;2024-02-26T03:27:14;20.50;69.10
1956;DHT22;978;48.314;11.562;2024-02-26T03:29:44;20.50;69.60
1956;DHT22;978;48.314;11.562;2024-02-26T03:32:13;20.50;69.10
1956;DHT22;978;48.314;11.562;2024-02-26T03:34:40;20.50;69.00
1956;DHT22;978;48.314;11.562;2024-02-26T03:37:07;20.60;69.00
1956;DHT22;978;48.314;11.562;2024-02-26T03:39:36;20.50;69.00
1956;DHT22;978;48.314;11.562;2024-02-26T03:42:04;20.60;68.90
1956;DHT22;978;48.314;11.562;2024-02-26T03:44:31;20.50;68.90
1956;DHT22;978;48.314;11.562;2024-02-26T03:46:59;20.60;69.00
1956;DHT22;978;48.314;11.562;2024-02-26T03:49:25;20.50;68.90
1956;DHT22;978;48.314;11.562;2024-02-26T03:51:52;20.50;68.90
1956;DHT22;978;48.314;11.562;2024-02-26T03:54:19;20.50;68.90
1956;DHT22;978;48.314;11.562;2024-02-26T03:56:46;20.50;68.80
1956;DHT22;978;48.314;11.562;2024-02-26T03:59:13;20.50;68.80
1956;DHT22;978;48.314;11.562;2024-02-26T04:01:45;20.50;68.70
1956;DHT22;978;48.314;11.562;2024-02-26T04:04:13;20.50;68.60
1956;DHT22;978;48.314;11.562;2024-02-26T04:06:43;20.50;68.60
1956;DHT22;978;48.314;11.562;2024-02-26T04:09:10;20.50;68.60
1956;DHT22;978;48.314;11.562;2024-02-26T04:11:37;20.50;68.60
1956;DHT22;978;48.314;11.562;2024-02-26T04:14:04;20.50;68.70
1956;DHT22;978;48.314;11.562;2024-02-26T04:16:34;20.50;68.60
1956;DHT22;978;48.314;11.562;2024-02-26T04:19:00;20.50;68.50
1956;DHT22;978;48.314;11.562;2024-02-26T04:21:29;21.50;69.00
1956;DHT22;978;48.314;11.562;2024-02-26T04:23:55;20.50;68.40
1956;DHT22;978;48.314;11.562;2024-02-26T04:26:26;20.50;68.40
1956;DHT22;978;48.314;11.562;2024-02-26T04:28:52;20.50;68.40
1956;DHT22;978;48.314;11.562;2024-02-26T04:31:19;20.50;68.40
1956;DHT22;978;48.314;11.562;2024-02-26T04:33:46;20.50;68.40
1956;DHT22;978;48.314;11.562;2024-02-26T04:36:13;20.50;68.50
1956;DHT22;978;48.314;11.562;2024-02-26T04:38:42;20.50;68.30
1956;DHT22;978;48.314;11.562;2024-02-26T04:41:09;20.50;68.30
1956;DHT22;978;48.314;11.562;2024-02-26T04:43:36;20.50;68.20
1956;DHT22;978;48.314;11.562;2024-02-26T04:46:07;18.60;67.30
1956;DHT22;978;48.314;11.562;2024-02-26T04:48:34;20.60;68.40
1956;DHT22;978;48.314;11.562;2024-02-26T04:51:01;20.50;68.30
1956;DHT22;978;48.314;11.562;2024-02-26T04:53:29;20.50;68.30
1956;DHT22;978;48.314;11.562;2024-02-26T04:55:57;20.50;68.10
1956;DHT22;978;48.314;11.562;2024-02-26T04:58:24;20.50;68.20
1956;DHT22;978;48.314;11.562;2024-02-26T05:00:50;20.50;68.10
1956;DHT22;978;48.314;11.562;2024-02-26T05:03:17;20.50;68.10
1956;DHT22;978;48.314;11.562;2024-02-26T05:05:44;20.50;68.20
1956;DHT22;978;48.314;11.562;2024-02-26T05:08:11;20.50;68.00
1956;DHT22;978;48.314;11.562;2024-02-26T05:10:38;20.50;68.00
1956;DHT22;978;48.314;11.562;2024-02-26T05:13:08;20.50;68.00
1956;DHT22;978;48.314;11.562;2024-02-26T05:15:35;20.50;68.00
1956;DHT22;978;48.314;11.562;2024-02-26T05:18:02;20.50;67.90
1956;DHT22;978;48.314;11.562;2024-02-26T05:20:29;20.50;68.00
1956;DHT22;978;48.314;11.562;2024-02-26T05:22:56;20.50;68.00
1956;DHT22;978;48.314;11.562;2024-02-26T05:25:24;20.50;68.00
1956;DHT22;978;48.314;11.562;2024-02-26T05:27:51;20.50;68.10
1956;DHT22;978;48.314;11.562;2024-02-26T05:30:20;20.50;68.00
1956;DHT22;978;48.314;11.562;2024-02-26T05:32:47;20.50;68.00
1956;DHT22;978;48.314;11.562;2024-02-26T05:35:14;20.50;68.00
1956;DHT22;978;48.314;11.562;2024-02-26T05:37:42;20.50;68.00
1956;DHT22;978;48.314;11.562;2024-02-26T05:40:09;20.50;68.10
1956;DHT22;978;48.314;11.562;2024-02-26T05:42:36;20.50;67.90
1956;DHT22;978;48.314;11.562;2024-02-26T05:45:03;20.50;67.90
1956;DHT22;978;48.314;11.562;2024-02-26T05:47:33;20.50;67.80
1956;DHT22;978;48.314;11.562;2024-02-26T05:50:00;20.50;67.80
1956;DHT22;978;48.314;11.562;2024-02-26T05:52:27;20.50;67.90
1956;DHT22;978;48.314;11.562;2024-02-26T05:54:55;20.50;68.60
1956;DHT22;978;48.314;11.562;2024-02-26T05:57:21;20.50;67.80
1956;DHT22;978;48.314;11.562;2024-02-26T05:59:48;20.60;67.80
1956;DHT22;978;48.314;11.562;2024-02-26T06:02:16;20.50;67.90
1956;DHT22;978;48.314;11.562;2024-02-26T06:04:44;20.50;67.90
1956;DHT22;978;48.314;11.562;2024-02-26T06:07:12;20.50;67.20
1956;DHT22;978;48.314;11.562;2024-02-26T06:09:39;20.50;67.70
1956;DHT22;978;48.314;11.562;2024-02-26T06:12:06;20.50;67.70
1956;DHT22;978;48.314;11.562;2024-02-26T06:14:33;20.50;67.80
1956;DHT22;978;48.314;11.562;2024-02-26T06:17:00;20.50;67.80
1956;DHT22;978;48.314;11.562;2024-02-26T06:19:27;20.60;67.90
1956;DHT22;978;48.314;11.562;2024-02-26T06:21:56;20.50;67.70
1956;DHT22;978;48.314;11.562;2024-02-26T06:24:23;20.50;67.90
1956;DHT22;978;48.314;11.562;2024-02-26T06:26:50;20.50;67.80
1956;DHT22;978;48.314;11.562;2024-02-26T06:29:17;20.50;67.60
1956;DHT22;978;48.314;11.562;2024-02-26T06:31:44;20.50;67.70
1956;DHT22;978;48.314;11.562;2024-02-26T06:34:14;20.50;67.80
1956;DHT22;978;48.314;11.562;2024-02-26T06:36:40;20.50;67.70
1956;DHT22;978;48.314;11.562;2024-02-26T06:39:08;20.50;67.70
1956;DHT22;978;48.314;11.562;2024-02-26T06:41:36;20.50;67.70
1956;DHT22;978;48.314;11.562;2024-02-26T06:44:04;20.50;67.80
1956;DHT22;978;48.314;11.562;2024-02-26T06:46:31;20.60;67.80
1956;DHT22;978;48.314;11.562;2024-02-26T06:49:00;19.20;67.00
1956;DHT22;978;48.314;11.562;2024-02-26T06:51:27;20.50;67.60
1956;DHT22;978;48.314;11.562;2024-02-26T06:53:54;20.50;67.70
1956;DHT22;978;48.314;11.562;2024-02-26T06:56:22;20.50;67.60
1956;DHT22;978;48.314;11.562;2024-02-26T06:58:49;20.50;67.80
1956;DHT22;978;48.314;11.562;2024-02-26T07:01:17;20.50;67.70
1956;DHT22;978;48.314;11.562;2024-02-26T07:03:45;20.50;67.60
1956;DHT22;978;48.314;11.562;2024-02-26T07:06:12;20.50;67.70
1956;DHT22;978;48.314;11.562;2024-02-26T07:08:39;20.50;67.70
1956;DHT22;978;48.314;11.562;2024-02-26T07:11:07;20.50;67.60
1956;DHT22;978;48.314;11.562;2024-02-26T07:13:35;20.50;67.70
1956;DHT22;978;48.314;11.562;2024-02-26T07:16:03;20.50;68.30
1956;DHT22;978;48.314;11.562;2024-02-26T07:18:30;20.50;67.70
1956;DHT22;978;48.314;11.562;2024-02-26T07:20:56;20.50;67.60
1956;DHT22;978;48.314;11.562;2024-02-26T07:23:23;20.50;67.40
1956;DHT22;978;48.314;11.562;2024-02-26T07:25:50;20.50;67.60
1956;DHT22;978;48.314;11.562;2024-02-26T07:28:18;20.50;67.50
1956;DHT22;978;48.314;11.562;2024-02-26T07:30:47;20.80;67.70
1956;DHT22;978;48.314;11.562;2024-02-26T07:33:14;20.50;67.30
1956;DHT22;978;48.314;11.562;2024-02-26T07:35:41;20.50;67.40
1956;DHT22;978;48.314;11.562;2024-02-26T07:38:09;20.50;67.60
1956;DHT22;978;48.314;11.562;2024-02-26T07:40:36;20.50;67.60
1956;DHT22;978;48.314;11.562;2024-02-26T07:43:03;20.50;67.50
1956;DHT22;978;48.314;11.562;2024-02-26T07:45:29;20.50;67.50
1956;DHT22;978;48.314;11.562;2024-02-26T07:47:57;20.50;67.40
1956;DHT22;978;48.314;11.562;2024-02-26T07:50:26;20.50;67.30
1956;DHT22;978;48.314;11.562;2024-02-26T07:52:52;20.50;67.40
1956;DHT22;978;48.314;11.562;2024-02-26T07:55:19;20.40;67.00
1956;DHT22;978;48.314;11.562;2024-02-26T07:57:48;20.50;67.40
1956;DHT22;978;48.314;11.562;2024-02-26T08:00:17;20.50;67.30
1956;DHT22;978;48.314;11.562;2024-02-26T08:02:44;20.50;67.50
1956;DHT22;978;48.314;11.562;2024-02-26T08:05:12;20.50;67.40
1956;DHT22;978;48.314;11.562;2024-02-26T08:07:40;20.50;67.40
1956;DHT22;978;48.314;11.562;2024-02-26T08:10:07;20.50;67.50
1956;DHT22;978;48.314;11.562;2024-02-26T08:12:34;20.50;67.60
1956;DHT22;978;48.314;11.562;2024-02-26T08:15:01;20.50;67.60
1956;DHT22;978;48.314;11.562;2024-02-26T08:17:28;20.50;67.50
1956;DHT22;978;48.314;11.562;2024-02-26T08:19:54;20.50;67.50
1956;DHT22;978;48.314;11.562;2024-02-26T08:22:24;20.50;67.50
1956;DHT22;978;48.314;11.562;2024-02-26T08:24:50;20.50;67.30
1956;DHT22;978;48.314;11.562;2024-02-26T08:27:17;20.40;67.40
1956;DHT22;978;48.314;11.562;2024-02-26T08:29:44;20.60;67.40
1956;DHT22;978;48.314;11.562;2024-02-26T08:32:11;20.50;67.40
1956;DHT22;978;48.314;11.562;2024-02-26T08:34:37;20.50;67.30
1956;DHT22;978;48.314;11.562;2024-02-26T08:37:06;20.50;67.20
1956;DHT22;978;48.314;11.562;2024-02-26T08:39:34;20.40;67.20
1956;DHT22;978;48.314;11.562;2024-02-26T08:42:02;20.50;67.30
1956;DHT22;978;48.314;11.562;2024-02-26T08:44:28;20.50;67.10
1956;DHT22;978;48.314;11.562;2024-02-26T08:46:55;20.50;67.00
1956;DHT22;978;48.314;11.562;2024-02-26T08:49:22;20.50;67.60
1956;DHT22;978;48.314;11.562;2024-02-26T08:51:49;20.50;67.00
1956;DHT22;978;48.314;11.562;2024-02-26T08:54:16;20.50;67.10
1956;DHT22;978;48.314;11.562;2024-02-26T08:56:45;20.50;67.00
1956;DHT22;978;48.314;11.562;2024-02-26T08:59:12;20.50;66.80
1956;DHT22;978;48.314;11.562;2024-02-26T09:01:41;20.50;67.00
1956;DHT22;978;48.314;11.562;2024-02-26T09:04:08;20.50;67.00
1956;DHT22;978;48.314;11.562;2024-02-26T09:06:35;20.50;66.80
1956;DHT22;978;48.314;11.562;2024-02-26T09:09:02;20.50;66.90
1956;DHT22;978;48.314;11.562;2024-02-26T09:11:31;20.50;67.00
1956;DHT22;978;48.314;11.562;2024-02-26T09:14:00;20.50;66.90
1956;DHT22;978;48.314;11.562;2024-02-26T09:16:29;20.50;66.80
1956;DHT22;978;48.314;11.562;2024-02-26T09:18:56;20.50;66.90
1956;DHT22;978;48.314;11.562;2024-02-26T09:21:23;20.50;67.00
1956;DHT22;978;48.314;11.562;2024-02-26T09:23:52;20.50;67.10
1956;DHT22;978;48.314;11.562;2024-02-26T09:26:19;20.50;66.50
1956;DHT22;978;48.314;11.562;2024-02-26T09:28:46;20.50;66.80
1956;DHT22;978;48.314;11.562;2024-02-26T09:31:15;20.50;66.90
1956;DHT22;978;48.314;11.562;2024-02-26T09:33:42;20.50;66.60
1956;DHT22;978;48.314;11.562;2024-02-26T09:36:09;20.50;66.70
1956;DHT22;978;48.314;11.562;2024-02-26T09:38:36;20.50;66.80
1956;DHT22;978;48.314;11.562;2024-02-26T09:41:04;20.60;66.80
1956;DHT22;978;48.314;11.562;2024-02-26T09:43:35;20.50;66.60
1956;DHT22;978;48.314;11.562;2024-02-26T09:46:02;20.50;66.60
1956;DHT22;978;48.314;11.562;2024-02-26T09:48:31;20.50;66.60
1956;DHT22;978;48.314;11.562;2024-02-26T09:50:59;20.50;66.70
1956;DHT22;978;48.314;11.562;2024-02-26T09:53:28;20.50;66.50
1956;DHT22;978;48.314;11.562;2024-02-26T09:55:57;20.50;66.80
1956;DHT22;978;48.314;11.562;2024-02-26T09:58:25;20.50;66.60
1956;DHT22;978;48.314;11.562;2024-02-26T10:00:56;20.50;66.50
1956;DHT22;978;48.314;11.562;2024-02-26T10:03:27;20.50;66.70
1956;DHT22;978;48.314;11.562;2024-02-26T10:05:56;20.50;66.70
1956;DHT22;978;48.314;11.562;2024-02-26T10:08:25;20.50;66.70
1956;DHT22;978;48.314;11.562;2024-02-26T10:10:54;20.50;66.50
1956;DHT22;978;48.314;11.562;2024-02-26T10:13:21;20.50;66.50
1956;DHT22;978;48.314;11.562;2024-02-26T10:15:48;20.50;66.80
1956;DHT22;978;48.314;11.562;2024-02-26T10:18:15;20.50;66.60
1956;DHT22;978;48.314;11.562;2024-02-26T10:20:42;20.50;66.50
1956;DHT22;978;48.314;11.562;2024-02-26T10:23:27;20.50;66.60
1956;DHT22;978;48.314;11.562;2024-02-26T10:25:56;20.50;66.50
1956;DHT22;978;48.314;11.562;2024-02-26T10:28:23;20.50;66.50
1956;DHT22;978;48.314;11.562;2024-02-26T10:30:52;20.50;66.20
1956;DHT22;978;48.314;11.562;2024-02-26T10:33:20;20.50;66.50
1956;DHT22;978;48.314;11.562;2024-02-26T10:35:47;20.50;66.50
1956;DHT22;978;48.314;11.562;2024-02-26T10:38:14;20.50;66.50
1956;DHT22;978;48.314;11.562;2024-02-26T10:40:48;20.50;66.50
1956;DHT22;978;48.314;11.562;2024-02-26T10:43:15;20.50;66.30
1956;DHT22;978;48.314;11.562;2024-02-26T10:45:44;20.50;66.50
1956;DHT22;978;48.314;11.562;2024-02-26T10:48:13;20.50;66.70
1956;DHT22;978;48.314;11.562;2024-02-26T10:50:40;20.50;66.50
1956;DHT22;978;48.314;11.562;2024-02-26T10:53:16;20.50;66.40
1956;DHT22;978;48.314;11.562;2024-02-26T10:55:48;20.50;66.50
1956;DHT22;978;48.314;11.562;2024-02-26T10:58:16;20.50;66.50
1956;DHT22;978;48.314;11.562;2024-02-26T11:00:44;20.50;66.30
1956;DHT22;978;48.314;11.562;2024-02-26T11:03:13;20.50;66.50
1956;DHT22;978;48.314;11.562;2024-02-26T11:05:41;20.50;66.50
1956;DHT22;978;48.314;11.562;2024-02-26T11:08:11;20.50;66.50
1956;DHT22;978;48.314;11.562;2024-02-26T11:10:39;20.50;66.50
1956;DHT22;978;48.314;11.562;2024-02-26T11:13:10;20.50;66.50
1956;DHT22;978;48.314;11.562;2024-02-26T11:15:39;20.50;65.90
1956;DHT22;978;48.314;11.562;2024-02-26T11:18:07;20.10;66.00
1956;DHT22;978;48.314;11.562;2024-02-26T11:20:38;20.50;66.40
1956;DHT22;978;48.314;11.562;2024-02-26T11:23:07;20.50;66.10
1956;DHT22;978;48.314;11.562;2024-02-26T11:25:35;20.50;66.30
1956;DHT22;978;48.314;11.562;2024-02-26T11:28:08;20.50;66.20
1956;DHT22;978;48.314;11.562;2024-02-26T11:30:38;20.50;66.30
1956;DHT22;978;48.314;11.562;2024-02-26T11:33:07;20.50;66.30
1956;DHT22;978;48.314;11.562;2024-02-26T11:35:36;20.50;66.20
1956;DHT22;978;48.314;11.562;2024-02-26T11:38:03;20.50;66.40
1956;DHT22;978;48.314;11.562;2024-02-26T11:40:32;20.50;66.20
1956;DHT22;978;48.314;11.562;2024-02-26T11:42:59;20.50;66.00
1956;DHT22;978;48.314;11.562;2024-02-26T11:45:50;20.50;66.20
1956;DHT22;978;48.314;11.562;2024-02-26T11:48:22;20.50;66.00
1956;DHT22;978;48.314;11.562;2024-02-26T11:50:50;20.50;66.20
1956;DHT22;978;48.314;11.562;2024-02-26T11:53:25;20.50;66.30
1956;DHT22;978;48.314;11.562;2024-02-26T11:56:19;20.50;66.30
1956;DHT22;978;48.314;11.562;2024-02-26T11:58:47;20.50;66.10
1956;DHT22;978;48.314;11.562;2024-02-26T12:01:41;20.50;65.90
1956;DHT22;978;48.314;11.562;2024-02-26T12:04:12;20.50;66.00
1956;DHT22;978;48.314;11.562;2024-02-26T12:06:45;20.50;66.00
1956;DHT22;978;48.314;11.562;2024-02-26T12:09:12;20.50;66.00
1956;DHT22;978;48.314;11.562;2024-02-26T12:11:42;20.50;66.20
1956;DHT22;978;48.314;11.562;2024-02-26T12:14:10;20.50;66.20
1956;DHT22;978;48.314;11.562;2024-02-26T12:16:38;20.50;66.00
1956;DHT22;978;48.314;11.562;2024-02-26T12:19:07;20.50;65.90
1956;DHT22;978;48.314;11.562;2024-02-26T12:21:35;20.50;66.00
1956;DHT22;978;48.314;11.562;2024-02-26T12:24:12;20.60;66.10
1956;DHT22;978;48.314;11.562;2024-02-26T12:26:39;20.50;66.10
1956;DHT22;978;48.314;11.562;2024-02-26T12:29:06;20.50;66.30
1956;DHT22;978;48.314;11.562;2024-02-26T12:31:33;20.50;66.20
1956;DHT22;978;48.314;11.562;2024-02-26T12:34:03;20.50;66.70
1956;DHT22;978;48.314;11.562;2024-02-26T12:36:31;20.50;66.10
1956;DHT22;978;48.314;11.562;2024-02-26T12:39:00;20.50;65.80
1956;DHT22;978;48.314;11.562;2024-02-26T12:41:27;20.50;66.00
1956;DHT22;978;48.314;11.562;2024-02-26T12:43:55;20.50;65.90
1956;DHT22;978;48.314;11.562;2024-02-26T12:46:23;20.50;65.80
1956;DHT22;978;48.314;11.562;2024-02-26T12:48:50;20.50;66.00
1956;DHT22;978;48.314;11.562;2024-02-26T12:51:17;20.50;65.90
1956;DHT22;978;48.314;11.562;2024-02-26T12:53:46;20.50;65.70
1956;DHT22;978;48.314;11.562;2024-02-26T12:56:16;20.50;65.90
1956;DHT22;978;48.314;11.562;2024-02-26T12:58:43;20.50;65.90
1956;DHT22;978;48.314;11.562;2024-02-26T13:01:15;20.50;65.90
1956;DHT22;978;48.314;11.562;2024-02-26T13:03:42;20.50;65.90
1956;DHT22;978;48.314;11.562;2024-02-26T13:06:10;20.50;65.90
1956;DHT22;978;48.314;11.562;2024-02-26T13:08:37;20.50;65.90
1956;DHT22;978;48.314;11.562;2024-02-26T13:11:05;20.50;66.00
1956;DHT22;978;48.314;11.562;2024-02-26T13:13:32;20.50;66.00
1956;DHT22;978;48.314;11.562;2024-02-26T13:16:03;20.50;65.70
1956;DHT22;978;48.314;11.562;2024-02-26T13:18:32;20.50;65.60
1956;DHT22;978;48.314;11.562;2024-02-26T13:21:13;20.50;65.90
1956;DHT22;978;48.314;11.562;2024-02-26T13:23:42;20.50;65.70
1956;DHT22;978;48.314;11.562;2024-02-26T13:26:12;20.50;65.60
1956;DHT22;978;48.314;11.562;2024-02-26T13:28:40;20.50;65.60
1956;DHT22;978;48.314;11.562;2024-02-26T13:31:08;20.50;65.70
1956;DHT22;978;48.314;11.562;2024-02-26T13:33:35;20.50;65.50
1956;DHT22;978;48.314;11.562;2024-02-26T13:36:03;20.50;65.50
1956;DHT22;978;48.314;11.562;2024-02-26T13:38:30;20.50;65.40
1956;DHT22;978;48.314;11.562;2024-02-26T13:40:57;20.50;65.60
1956;DHT22;978;48.314;11.562;2024-02-26T13:43:25;20.50;65.50
1956;DHT22;978;48.314;11.562;2024-02-26T13:45:52;20.50;65.70
1956;DHT22;978;48.314;11.562;2024-02-26T13:48:19;20.50;65.50
1956;DHT22;978;48.314;11.562;2024-02-26T13:50:46;20.50;65.60
1956;DHT22;978;48.314;11.562;2024-02-26T13:53:13;20.50;65.40
1956;DHT22;978;48.314;11.562;2024-02-26T13:55:40;20.50;66.10
1956;DHT22;978;48.314;11.562;2024-02-26T13:58:09;20.50;65.30
1956;DHT22;978;48.314;11.562;2024-02-26T14:00:39;20.50;66.00
1956;DHT22;978;48.314;11.562;2024-02-26T14:03:08;20.50;65.30
1956;DHT22;978;48.314;11.562;2024-02-26T14:05:35;20.50;65.20
1956;DHT22;978;48.314;11.562;2024-02-26T14:08:02;20.50;66.00
1956;DHT22;978;48.314;11.562;2024-02-26T14:10:32;20.50;65.40
1956;DHT22;978;48.314;11.562;2024-02-26T14:12:59;20.50;65.40
1956;DHT22;978;48.314;11.562;2024-02-26T14:15:27;20.50;65.40
1956;DHT22;978;48.314;11.562;2024-02-26T14:17:55;20.50;65.60
1956;DHT22;978;48.314;11.562;2024-02-26T14:20:23;20.50;65.30
1956;DHT22;978;48.314;11.562;2024-02-26T14:22:50;20.50;65.40
1956;DHT22;978;48.314;11.562;2024-02-26T14:25:20;20.50;65.50
1956;DHT22;978;48.314;11.562;2024-02-26T14:27:47;20.50;65.50
1956;DHT22;978;48.314;11.562;2024-02-26T14:30:14;20.50;65.50
1956;DHT22;978;48.314;11.562;2024-02-26T14:32:41;20.50;65.20
1956;DHT22;978;48.314;11.562;2024-02-26T14:35:10;20.50;65.50
1956;DHT22;978;48.314;11.562;2024-02-26T14:37:39;20.50;65.80
1956;DHT22;978;48.314;11.562;2024-02-26T14:40:07;20.50;65.40
1956;DHT22;978;48.314;11.562;2024-02-26T14:42:34;20.50;65.30
1956;DHT22;978;48.314;11.562;2024-02-26T14:45:02;20.50;65.40
1956;DHT22;978;48.314;11.562;2024-02-26T14:47:31;20.50;65.30
1956;DHT22;978;48.314;11.562;2024-02-26T14:49:58;20.50;65.40
1956;DHT22;978;48.314;11.562;2024-02-26T14:52:26;20.50;65.10
1956;DHT22;978;48.314;11.562;2024-02-26T14:54:54;20.50;65.20
1956;DHT22;978;48.314;11.562;2024-02-26T14:57:21;20.50;65.10
1956;DHT22;978;48.314;11.562;2024-02-26T14:59:48;20.50;65.20
1956;DHT22;978;48.314;11.562;2024-02-26T15:02:15;20.50;65.20
1956;DHT22;978;48.314;11.562;2024-02-26T15:04:43;20.50;65.10
1956;DHT22;978;48.314;11.562;2024-02-26T15:07:11;20.50;65.10
1956;DHT22;978;48.314;11.562;2024-02-26T15:09:39;20.50;65.30
1956;DHT22;978;48.314;11.562;2024-02-26T15:12:06;20.50;65.40
1956;DHT22;978;48.314;11.562;2024-02-26T15:14:33;20.50;65.20
1956;DHT22;978;48.314;11.562;2024-02-26T15:17:01;20.50;65.50
1956;DHT22;978;48.314;11.562;2024-02-26T15:19:29;20.50;65.40
1956;DHT22;978;48.314;11.562;2024-02-26T15:21:56;20.50;65.10
1956;DHT22;978;48.314;11.562;2024-02-26T15:24:23;20.50;65.30
1956;DHT22;978;48.314;11.562;2024-02-26T15:26:52;20.50;65.30
1956;DHT22;978;48.314;11.562;2024-02-26T15:29:20;20.50;65.10
1956;DHT22;978;48.314;11.562;2024-02-26T15:31:47;20.00;64.80
1956;DHT22;978;48.314;11.562;2024-02-26T15:34:14;20.50;65.20
1956;DHT22;978;48.314;11.562;2024-02-26T15:36:42;20.50;65.10
1956;DHT22;978;48.314;11.562;2024-02-26T15:39:09;20.50;65.10
1956;DHT22;978;48.314;11.562;2024-02-26T15:41:36;20.80;65.10
1956;DHT22;978;48.314;11.562;2024-02-26T15:44:05;20.50;64.90
1956;DHT22;978;48.314;11.562;2024-02-26T15:46:32;20.50;64.90
1956;DHT22;978;48.314;11.562;2024-02-26T15:48:58;20.50;64.90
1956;DHT22;978;48.314;11.562;2024-02-26T15:51:25;20.50;65.00
1956;DHT22;978;48.314;11.562;2024-02-26T15:53:52;20.50;64.90
1956;DHT22;978;48.314;11.562;2024-02-26T15:56:20;20.40;65.30
1956;DHT22;978;48.314;11.562;2024-02-26T15:58:50;20.50;65.10
1956;DHT22;978;48.314;11.562;2024-02-26T16:01:20;20.50;65.00
1956;DHT22;978;48.314;11.562;2024-02-26T16:03:48;20.50;64.90
1956;DHT22;978;48.314;11.562;2024-02-26T16:06:20;20.60;65.00